createdAt,value
2023-01-17T00:01:54.058Z,100.00
2023-01-17T00:04:41.223Z,100.00
2023-01-17T00:07:29.691Z,100.00
2023-01-17T00:09:58.827Z,100.00
2023-01-17T00:12:29.020Z,100.00
2023-01-17T00:14:58.964Z,100.00
2023-01-17T00:17:28.432Z,100.00
2023-01-17T00:20:18.651Z,100.00
2023-01-17T00:23:05.693Z,100.00
2023-01-17T00:25:53.481Z,100.00
2023-01-17T00:28:20.459Z,100.00
2023-01-17T00:30:47.744Z,100.00
2023-01-17T00:33:14.924Z,100.00
2023-01-17T00:35:43.454Z,100.00
2023-01-17T00:38:15.463Z,100.00
2023-01-17T00:40:44.000Z,100.00
2023-01-17T00:43:30.972Z,100.00
2023-01-17T00:46:16.504Z,100.00
2023-01-17T00:49:04.695Z,100.00
2023-01-17T00:51:53.016Z,100.00
2023-01-17T00:54:39.193Z,100.00
2023-01-17T00:57:26.678Z,100.00
2023-01-17T01:00:12.488Z,100.00
2023-01-17T01:02:58.966Z,100.00
2023-01-17T01:05:45.201Z,100.00
2023-01-17T01:08:40.313Z,100.00
2023-01-17T01:11:27.993Z,100.00
2023-01-17T01:14:14.032Z,100.00
2023-01-17T01:16:59.476Z,100.00
2023-01-17T01:19:45.098Z,100.00
2023-01-17T01:22:31.280Z,100.00
2023-01-17T01:25:18.295Z,100.00
2023-01-17T01:28:04.070Z,100.00
2023-01-17T01:30:51.067Z,100.00
2023-01-17T01:33:21.453Z,100.00
2023-01-17T01:35:51.000Z,100.00
2023-01-17T01:38:20.043Z,100.00
2023-01-17T01:40:52.684Z,100.00
2023-01-17T01:43:22.242Z,100.00
2023-01-17T01:45:54.165Z,100.00
2023-01-17T01:48:34.834Z,100.00
2023-01-17T01:51:06.086Z,100.00
2023-01-17T01:53:37.369Z,100.00
2023-01-17T01:56:11.114Z,100.00
2023-01-17T01:58:40.191Z,100.00
2023-01-17T02:01:09.525Z,100.00
2023-01-17T02:03:39.539Z,100.00
2023-01-17T02:06:16.265Z,100.00
2023-01-17T02:08:44.741Z,100.00
2023-01-17T02:11:14.621Z,100.00
2023-01-17T02:13:43.342Z,100.00
2023-01-17T02:16:19.095Z,100.00
2023-01-17T02:18:54.395Z,100.00
2023-01-17T02:21:27.810Z,100.00
2023-01-17T02:24:31.435Z,100.00
2023-01-17T02:27:06.201Z,100.00
2023-01-17T02:30:18.750Z,100.00
2023-01-17T02:32:54.967Z,100.00
2023-01-17T02:35:29.986Z,100.00
2023-01-17T02:38:04.689Z,100.00
2023-01-17T02:40:36.179Z,100.00
2023-01-17T02:43:10.817Z,100.00
2023-01-17T02:45:39.326Z,100.00
2023-01-17T02:48:10.902Z,100.00
2023-01-17T02:50:53.848Z,100.00
2023-01-17T02:53:31.917Z,100.00
2023-01-17T02:56:07.638Z,100.00
2023-01-17T02:58:55.093Z,100.00
2023-01-17T03:01:30.217Z,100.00
2023-01-17T03:04:03.375Z,100.00
2023-01-17T03:06:34.975Z,100.00
2023-01-17T03:09:03.716Z,100.00
2023-01-17T03:11:32.039Z,100.00
2023-01-17T03:14:02.622Z,100.00
2023-01-17T03:16:33.909Z,100.00
2023-01-17T03:19:03.647Z,100.00
2023-01-17T03:21:31.978Z,100.00
2023-01-17T03:24:00.318Z,100.00
2023-01-17T03:26:29.121Z,100.00
2023-01-17T03:28:57.411Z,100.00
2023-01-17T03:31:26.116Z,100.00
2023-01-17T03:33:54.376Z,100.00
2023-01-17T03:36:24.009Z,100.00
2023-01-17T03:38:52.333Z,100.00
2023-01-17T03:41:20.630Z,100.00
2023-01-17T03:43:50.743Z,100.00
2023-01-17T03:46:23.082Z,100.00
2023-01-17T03:48:51.464Z,100.00
2023-01-17T03:51:20.092Z,100.00
2023-01-17T03:53:52.235Z,100.00
2023-01-17T03:56:20.558Z,100.00
2023-01-17T03:58:49.016Z,100.00
2023-01-17T04:01:17.472Z,100.00
2023-01-17T04:03:47.394Z,100.00
2023-01-17T04:06:15.647Z,100.00
2023-01-17T04:08:44.039Z,100.00
2023-01-17T04:11:13.779Z,100.00
2023-01-17T04:13:42.019Z,100.00
2023-01-17T04:16:12.296Z,100.00
2023-01-17T04:18:40.679Z,100.00
2023-01-17T04:21:09.205Z,100.00
2023-01-17T04:23:37.669Z,100.00
2023-01-17T04:26:06.271Z,100.00
2023-01-17T04:28:35.942Z,100.00
2023-01-17T04:31:04.911Z,100.00
2023-01-17T04:33:33.196Z,100.00
2023-01-17T04:36:01.540Z,100.00
2023-01-17T04:38:29.983Z,100.00
2023-01-17T04:40:58.218Z,100.00
2023-01-17T04:43:26.518Z,100.00
2023-01-17T04:46:01.835Z,100.00
2023-01-17T04:48:31.525Z,100.00
2023-01-17T04:51:03.670Z,100.00
2023-01-17T04:53:34.240Z,100.00
2023-01-17T04:56:02.949Z,100.00
2023-01-17T04:58:31.684Z,100.00
2023-01-17T05:01:04.361Z,100.00
2023-01-17T05:03:33.019Z,100.00
2023-01-17T05:06:01.346Z,100.00
2023-01-17T05:08:33.263Z,100.00
2023-01-17T05:11:01.516Z,100.00
2023-01-17T05:13:31.339Z,100.00
2023-01-17T05:15:59.853Z,100.00
2023-01-17T05:18:29.659Z,100.00
2023-01-17T05:21:03.010Z,100.00
2023-01-17T05:23:31.417Z,100.00
2023-01-17T05:25:59.735Z,100.00
2023-01-17T05:28:28.149Z,100.00
2023-01-17T05:30:56.559Z,100.00
2023-01-17T05:33:25.490Z,100.00
2023-01-17T05:35:55.285Z,100.00
2023-01-17T05:38:25.131Z,100.00
2023-01-17T05:40:53.435Z,100.00
2023-01-17T05:43:22.273Z,100.00
2023-01-17T05:45:50.868Z,100.00
2023-01-17T05:48:19.166Z,100.00
2023-01-17T05:50:47.647Z,100.00
2023-01-17T05:53:18.264Z,100.00
2023-01-17T05:55:48.009Z,100.00
2023-01-17T05:58:18.199Z,100.00
2023-01-17T06:00:48.430Z,100.00
2023-01-17T06:03:17.241Z,100.00
2023-01-17T06:05:47.028Z,100.00
2023-01-17T06:08:17.255Z,100.00
2023-01-17T06:10:45.787Z,100.00
2023-01-17T06:13:16.858Z,100.00
2023-01-17T06:15:48.658Z,100.00
2023-01-17T06:18:18.049Z,100.00
2023-01-17T06:20:46.490Z,100.00
2023-01-17T06:23:17.175Z,100.00
2023-01-17T06:25:47.154Z,100.00
2023-01-17T06:28:16.665Z,100.00
2023-01-17T06:30:45.268Z,100.00
2023-01-17T06:33:14.074Z,100.00
2023-01-17T06:35:49.295Z,100.00
2023-01-17T06:38:21.772Z,100.00
2023-01-17T06:40:50.228Z,100.00
2023-01-17T06:43:19.906Z,100.00
2023-01-17T06:45:51.086Z,100.00
2023-01-17T06:48:19.624Z,100.00
2023-01-17T06:50:49.886Z,100.00
2023-01-17T06:53:18.281Z,100.00
2023-01-17T06:55:48.099Z,100.00
2023-01-17T06:58:16.393Z,100.00
2023-01-17T07:00:46.693Z,100.00
2023-01-17T07:03:20.363Z,100.00
2023-01-17T07:05:49.128Z,100.00
2023-01-17T07:08:18.159Z,100.00
2023-01-17T07:10:50.559Z,100.00
2023-01-17T07:13:18.927Z,100.00
2023-01-17T07:15:52.933Z,100.00
2023-01-17T07:18:23.637Z,100.00
2023-01-17T07:20:52.203Z,100.00
2023-01-17T07:23:21.896Z,100.00
2023-01-17T07:25:55.695Z,100.00
2023-01-17T07:28:24.360Z,100.00
2023-01-17T07:30:53.007Z,100.00
2023-01-17T07:33:24.623Z,100.00
2023-01-17T07:35:53.921Z,100.00
2023-01-17T07:38:23.146Z,100.00
2023-01-17T07:40:51.554Z,100.00
2023-01-17T07:43:32.995Z,100.00
2023-01-17T07:46:02.245Z,100.00
2023-01-17T07:48:32.158Z,100.00
2023-01-17T07:51:06.371Z,100.00
2023-01-17T07:53:34.703Z,100.00
2023-01-17T07:56:04.441Z,100.00
2023-01-17T07:58:35.000Z,100.00
2023-01-17T08:01:04.434Z,100.00
2023-01-17T08:03:36.445Z,100.00
2023-01-17T08:06:09.323Z,100.00
2023-01-17T08:08:37.824Z,100.00
2023-01-17T08:11:06.473Z,100.00
2023-01-17T08:13:36.212Z,100.00
2023-01-17T08:16:08.107Z,100.00
2023-01-17T08:18:36.611Z,100.00
2023-01-17T08:21:14.516Z,100.00
2023-01-17T08:23:42.796Z,100.00
2023-01-17T08:26:12.385Z,100.00
2023-01-17T08:28:42.283Z,100.00
2023-01-17T08:31:11.422Z,100.00
2023-01-17T08:33:39.950Z,100.00
2023-01-17T08:36:10.816Z,100.00
2023-01-17T08:38:39.266Z,100.00
2023-01-17T08:41:10.201Z,100.00
2023-01-17T08:43:38.522Z,100.00
2023-01-17T08:46:08.290Z,100.00
2023-01-17T08:48:36.845Z,100.00
2023-01-17T08:51:05.452Z,100.00
2023-01-17T08:53:33.765Z,100.00
2023-01-17T08:56:03.421Z,100.00
2023-01-17T08:58:33.419Z,100.00
2023-01-17T09:01:02.972Z,100.00
2023-01-17T09:03:33.206Z,100.00
2023-01-17T09:06:06.150Z,100.00
2023-01-17T09:08:35.612Z,100.00
2023-01-17T09:11:05.180Z,100.00
2023-01-17T09:13:33.581Z,100.00
2023-01-17T09:16:02.277Z,100.00
2023-01-17T09:18:33.354Z,100.00
2023-01-17T09:21:01.715Z,100.00
2023-01-17T09:23:31.748Z,100.00
2023-01-17T09:26:01.253Z,100.00
2023-01-17T09:28:33.378Z,100.00
2023-01-17T09:31:08.237Z,100.00
2023-01-17T09:33:38.468Z,100.00
2023-01-17T09:36:10.279Z,100.00
2023-01-17T09:38:39.146Z,100.00
2023-01-17T09:41:22.150Z,100.00
2023-01-17T09:43:53.290Z,100.00
2023-01-17T09:46:24.129Z,100.00
2023-01-17T09:49:04.071Z,100.00
2023-01-17T09:51:32.957Z,100.00
2023-01-17T09:54:02.566Z,100.00
2023-01-17T09:56:33.669Z,100.00
2023-01-17T09:59:32.710Z,100.00
2023-01-17T10:02:18.572Z,100.00
2023-01-17T10:04:58.240Z,100.00
2023-01-17T10:07:35.433Z,100.00
2023-01-17T10:10:23.591Z,100.00
2023-01-17T10:12:56.642Z,100.00
2023-01-17T10:15:49.023Z,100.00
2023-01-17T10:18:47.349Z,100.00
2023-01-17T10:21:24.311Z,100.00
2023-01-17T10:24:16.540Z,100.00
2023-01-17T10:26:48.675Z,100.00
2023-01-17T10:29:20.941Z,100.00
2023-01-17T10:31:52.777Z,100.00
2023-01-17T10:34:25.147Z,100.00
2023-01-17T10:37:00.472Z,100.00
2023-01-17T10:39:32.855Z,100.00
2023-01-17T10:42:09.144Z,100.00
2023-01-17T10:44:48.142Z,100.00
2023-01-17T10:47:21.334Z,100.00
2023-01-17T10:49:52.178Z,100.00
2023-01-17T10:52:27.666Z,100.00
2023-01-17T10:55:05.258Z,100.00
2023-01-17T10:57:41.173Z,100.00
2023-01-17T11:00:31.247Z,100.00
2023-01-17T11:03:00.142Z,100.00
2023-01-17T11:05:31.283Z,100.00
2023-01-17T11:08:02.879Z,100.00
2023-01-17T11:10:38.244Z,100.00
2023-01-17T11:13:08.380Z,100.00
2023-01-17T11:15:40.763Z,100.00
2023-01-17T11:18:17.049Z,100.00
2023-01-17T11:20:45.693Z,100.00
2023-01-17T11:23:22.189Z,100.00
2023-01-17T11:25:51.949Z,100.00
2023-01-17T11:28:26.167Z,100.00
2023-01-17T11:30:57.072Z,100.00
2023-01-17T11:33:45.445Z,100.00
2023-01-17T11:36:27.561Z,100.00
2023-01-17T11:38:58.817Z,100.00
2023-01-17T11:41:28.341Z,100.00
2023-01-17T11:43:59.451Z,100.00
2023-01-17T11:46:29.922Z,100.00
2023-01-17T11:48:59.714Z,100.00
2023-01-17T11:51:30.211Z,100.00
2023-01-17T11:54:10.105Z,100.00
2023-01-17T11:56:40.805Z,100.00
2023-01-17T11:59:20.287Z,100.00
2023-01-17T12:01:56.075Z,100.00
2023-01-17T12:04:26.141Z,100.00
2023-01-17T12:07:17.275Z,100.00
2023-01-17T12:09:53.811Z,100.00
2023-01-17T12:12:47.430Z,99.58
2023-01-17T12:15:28.160Z,100.00
2023-01-17T12:18:13.774Z,100.00
2023-01-17T12:20:49.687Z,100.00
2023-01-17T12:23:30.609Z,100.00
2023-01-17T12:26:09.747Z,99.80
2023-01-17T12:28:52.186Z,100.00
2023-01-17T12:31:27.747Z,99.98
2023-01-17T12:33:58.463Z,100.00
2023-01-17T12:36:40.284Z,100.00
2023-01-17T12:39:12.125Z,100.00
2023-01-17T12:41:54.218Z,99.68
2023-01-17T12:44:34.945Z,99.69
2023-01-17T12:47:07.739Z,100.00
2023-01-17T12:49:42.122Z,99.73
2023-01-17T12:52:15.533Z,99.85
2023-01-17T12:54:44.267Z,100.00
2023-01-17T12:57:16.827Z,99.30
2023-01-17T12:59:49.586Z,99.87
2023-01-17T13:02:23.553Z,100.00
2023-01-17T13:04:59.004Z,99.60
2023-01-17T13:07:36.568Z,100.00
2023-01-17T13:10:19.213Z,99.78
2023-01-17T13:12:50.347Z,99.67
2023-01-17T13:15:21.158Z,99.61
2023-01-17T13:17:51.834Z,99.21
2023-01-17T13:20:28.979Z,99.86
2023-01-17T13:22:58.446Z,99.37
2023-01-17T13:25:35.250Z,100.00
2023-01-17T13:28:19.227Z,99.53
2023-01-17T13:30:58.507Z,99.28
2023-01-17T13:33:43.627Z,99.31
2023-01-17T13:36:30.073Z,99.65
2023-01-17T13:39:17.950Z,99.28
2023-01-17T13:41:49.246Z,100.00
2023-01-17T13:44:24.756Z,100.00
2023-01-17T13:47:02.059Z,100.00
2023-01-17T13:49:45.227Z,99.62
2023-01-17T13:52:33.213Z,99.72
2023-01-17T13:55:03.448Z,100.00
2023-01-17T13:57:40.914Z,100.00
2023-01-17T14:00:42.319Z,100.00
2023-01-17T14:03:13.295Z,100.00
2023-01-17T14:05:57.688Z,100.00
2023-01-17T14:08:27.451Z,100.00
2023-01-17T14:11:09.855Z,99.58
2023-01-17T14:13:39.730Z,100.00
2023-01-17T14:16:24.440Z,100.00
2023-01-17T14:18:54.727Z,100.00
2023-01-17T14:21:24.984Z,100.00
2023-01-17T14:23:58.700Z,99.63
2023-01-17T14:26:32.850Z,100.00
2023-01-17T14:29:39.655Z,99.44
2023-01-17T14:32:11.622Z,99.95
2023-01-17T14:34:41.694Z,99.87
2023-01-17T14:37:21.817Z,99.30
2023-01-17T14:39:51.842Z,99.17
2023-01-17T14:42:22.499Z,98.90
2023-01-17T14:44:53.926Z,97.78
2023-01-17T14:47:22.717Z,97.98
2023-01-17T14:50:10.880Z,98.63
2023-01-17T14:52:39.762Z,97.83
2023-01-17T14:55:16.713Z,97.52
2023-01-17T14:57:54.870Z,97.17
2023-01-17T15:00:25.904Z,97.51
2023-01-17T15:02:59.403Z,96.86
2023-01-17T15:05:32.934Z,96.85
2023-01-17T15:08:01.346Z,97.26
2023-01-17T15:10:31.759Z,97.61
2023-01-17T15:13:07.503Z,97.02
2023-01-17T15:15:38.632Z,97.54
2023-01-17T15:18:27.401Z,96.65
2023-01-17T15:21:00.555Z,97.19
2023-01-17T15:23:34.732Z,96.90
2023-01-17T15:26:04.906Z,97.17
2023-01-17T15:28:34.442Z,96.01
2023-01-17T15:31:08.944Z,96.76
2023-01-17T15:33:42.170Z,95.75
2023-01-17T15:36:25.016Z,95.73
2023-01-17T15:39:01.638Z,95.55
2023-01-17T15:41:35.097Z,95.48
2023-01-17T15:44:03.610Z,95.33
2023-01-17T15:46:34.508Z,94.31
2023-01-17T15:49:24.175Z,94.33
2023-01-17T15:51:56.037Z,94.70
2023-01-17T15:54:35.099Z,94.62
2023-01-17T15:57:05.101Z,94.44
2023-01-17T15:59:43.525Z,93.75
2023-01-17T16:02:27.461Z,94.17
2023-01-17T16:04:56.019Z,93.09
2023-01-17T16:07:31.976Z,93.41
2023-01-17T16:10:09.764Z,93.47
2023-01-17T16:12:38.107Z,93.69
2023-01-17T16:15:13.430Z,93.61
2023-01-17T16:17:43.595Z,93.57
2023-01-17T16:20:16.606Z,94.24
2023-01-17T16:22:46.749Z,93.89
2023-01-17T16:25:19.526Z,94.31
2023-01-17T16:27:50.768Z,94.98
2023-01-17T16:30:21.597Z,94.53
2023-01-17T16:32:50.753Z,94.61
2023-01-17T16:35:21.428Z,94.92
2023-01-17T16:37:52.639Z,95.41
2023-01-17T16:40:23.190Z,95.69
2023-01-17T16:42:52.075Z,95.39
2023-01-17T16:45:23.666Z,95.37
2023-01-17T16:47:56.070Z,95.46
2023-01-17T16:50:25.697Z,94.67
2023-01-17T16:52:57.216Z,94.79
2023-01-17T16:55:29.988Z,94.91
2023-01-17T16:58:00.665Z,94.96
2023-01-17T17:00:28.956Z,95.66
2023-01-17T17:02:57.350Z,96.09
2023-01-17T17:05:27.151Z,95.50
2023-01-17T17:07:57.113Z,95.71
2023-01-17T17:10:27.750Z,96.14
2023-01-17T17:12:56.055Z,95.90
2023-01-17T17:15:24.570Z,95.70
2023-01-17T17:17:55.221Z,96.38
2023-01-17T17:20:25.268Z,96.03
2023-01-17T17:22:53.900Z,95.96
2023-01-17T17:25:23.731Z,96.13
2023-01-17T17:27:52.598Z,96.33
2023-01-17T17:30:22.867Z,95.94
2023-01-17T17:32:51.286Z,96.69
2023-01-17T17:35:19.599Z,96.36
2023-01-17T17:37:47.898Z,96.63
2023-01-17T17:40:16.563Z,96.65
2023-01-17T17:42:46.247Z,96.66
2023-01-17T17:45:14.541Z,96.50
2023-01-17T17:47:44.699Z,96.91
2023-01-17T17:50:13.671Z,97.28
2023-01-17T17:52:44.410Z,96.68
2023-01-17T17:55:13.252Z,97.14
2023-01-17T17:57:41.560Z,96.97
2023-01-17T18:00:13.312Z,96.46
2023-01-17T18:03:04.023Z,97.06
2023-01-17T18:05:36.832Z,97.02
2023-01-17T18:08:07.846Z,96.95
2023-01-17T18:10:36.143Z,97.13
2023-01-17T18:13:04.556Z,96.26
2023-01-17T18:15:34.199Z,96.52
2023-01-17T18:18:06.660Z,96.21
2023-01-17T18:20:34.994Z,96.07
2023-01-17T18:23:03.758Z,96.73
2023-01-17T18:25:32.104Z,96.13
2023-01-17T18:28:00.387Z,95.70
2023-01-17T18:30:28.979Z,96.17
2023-01-17T18:32:58.818Z,95.56
2023-01-17T18:35:28.972Z,95.75
2023-01-17T18:37:57.722Z,95.55
2023-01-17T18:40:26.087Z,95.34
2023-01-17T18:42:54.758Z,95.69
2023-01-17T18:45:23.215Z,95.28
2023-01-17T18:47:51.736Z,94.87
2023-01-17T18:50:21.558Z,95.38
2023-01-17T18:52:49.844Z,95.57
2023-01-17T18:55:18.646Z,94.85
2023-01-17T18:57:47.190Z,94.84
2023-01-17T19:00:16.570Z,95.58
2023-01-17T19:02:53.937Z,95.15
2023-01-17T19:05:24.696Z,95.19
2023-01-17T19:07:53.257Z,95.07
2023-01-17T19:10:21.942Z,94.84
2023-01-17T19:12:50.275Z,95.58
2023-01-17T19:15:18.547Z,95.48
2023-01-17T19:17:46.891Z,95.74
2023-01-17T19:20:16.146Z,96.48
2023-01-17T19:22:45.817Z,96.35
2023-01-17T19:25:14.239Z,95.29
2023-01-17T19:27:43.606Z,96.05
2023-01-17T19:30:17.618Z,96.15
2023-01-17T19:32:46.554Z,95.88
2023-01-17T19:35:16.132Z,95.89
2023-01-17T19:37:47.711Z,95.16
2023-01-17T19:40:16.502Z,95.85
2023-01-17T19:42:44.848Z,95.85
2023-01-17T19:45:14.590Z,95.42
2023-01-17T19:47:42.885Z,95.81
2023-01-17T19:50:12.280Z,94.90
2023-01-17T19:52:42.315Z,95.30
2023-01-17T19:55:13.952Z,94.78
2023-01-17T19:57:42.371Z,94.40
2023-01-17T20:00:14.054Z,95.54
2023-01-17T20:02:44.725Z,95.55
2023-01-17T20:05:14.010Z,95.65
2023-01-17T20:07:42.281Z,94.43
2023-01-17T20:10:12.941Z,94.81
2023-01-17T20:12:42.053Z,95.01
2023-01-17T20:15:10.925Z,95.98
2023-01-17T20:17:39.282Z,96.57
2023-01-17T20:20:12.893Z,96.59
2023-01-17T20:22:42.935Z,96.57
2023-01-17T20:25:13.300Z,96.63
2023-01-17T20:27:42.958Z,96.93
2023-01-17T20:30:20.083Z,97.45
2023-01-17T20:32:49.474Z,97.19
2023-01-17T20:35:18.200Z,97.11
2023-01-17T20:37:46.558Z,96.71
2023-01-17T20:40:17.702Z,95.98
2023-01-17T20:42:46.012Z,95.46
2023-01-17T20:45:17.194Z,96.47
2023-01-17T20:47:45.536Z,96.92
2023-01-17T20:50:13.831Z,96.96
2023-01-17T20:52:42.091Z,97.55
2023-01-17T20:55:10.913Z,96.89
2023-01-17T20:57:40.850Z,97.09
2023-01-17T21:00:10.323Z,96.69
2023-01-17T21:02:38.724Z,96.82
2023-01-17T21:05:10.305Z,95.87
2023-01-17T21:07:40.959Z,96.15
2023-01-17T21:10:10.051Z,95.88
2023-01-17T21:12:38.374Z,96.32
2023-01-17T21:15:10.023Z,95.66
2023-01-17T21:17:43.055Z,96.45
2023-01-17T21:20:15.351Z,96.12
2023-01-17T21:22:43.690Z,96.23
2023-01-17T21:25:12.111Z,96.47
2023-01-17T21:27:41.227Z,96.34
2023-01-17T21:30:12.749Z,96.61
2023-01-17T21:32:41.124Z,95.87
2023-01-17T21:35:10.637Z,96.29
2023-01-17T21:37:41.269Z,95.98
2023-01-17T21:40:11.003Z,95.93
2023-01-17T21:42:39.307Z,95.72
2023-01-17T21:45:10.960Z,95.48
2023-01-17T21:47:44.579Z,96.06
2023-01-17T21:50:25.100Z,95.32
2023-01-17T21:53:00.739Z,95.48
2023-01-17T21:55:46.707Z,95.60
2023-01-17T21:58:35.079Z,95.53
2023-01-17T22:01:11.209Z,95.72
2023-01-17T22:03:41.000Z,95.19
2023-01-17T22:06:10.532Z,95.73
2023-01-17T22:08:39.539Z,95.34
2023-01-17T22:11:09.134Z,95.89
2023-01-17T22:13:37.742Z,95.91
2023-01-17T22:16:10.972Z,95.72
2023-01-17T22:18:40.761Z,95.91
2023-01-17T22:21:11.918Z,96.22
2023-01-17T22:23:41.110Z,96.13
2023-01-17T22:26:11.932Z,96.15
2023-01-17T22:28:40.810Z,96.06
2023-01-17T22:31:10.902Z,96.12
2023-01-17T22:33:41.861Z,95.84
2023-01-17T22:36:13.793Z,95.97
2023-01-17T22:38:43.144Z,95.89
2023-01-17T22:41:13.240Z,95.84
2023-01-17T22:43:42.908Z,96.13
2023-01-17T22:46:13.609Z,95.93
2023-01-17T22:48:43.593Z,96.29
2023-01-17T22:51:16.520Z,96.17
2023-01-17T22:53:45.833Z,96.31
2023-01-17T22:56:16.095Z,96.63
2023-01-17T22:58:45.126Z,97.36
2023-01-17T23:01:14.659Z,97.44
2023-01-17T23:03:45.907Z,97.60
2023-01-17T23:06:16.425Z,98.33
2023-01-17T23:08:46.270Z,98.11
2023-01-17T23:11:42.839Z,97.69
2023-01-17T23:14:18.497Z,98.43
2023-01-17T23:17:10.441Z,98.22
2023-01-17T23:19:41.697Z,97.86
2023-01-17T23:22:17.615Z,98.28
2023-01-17T23:24:48.205Z,97.74
2023-01-17T23:27:35.992Z,98.25
2023-01-17T23:30:06.197Z,98.23
2023-01-17T23:32:34.946Z,98.16
2023-01-17T23:35:04.826Z,98.30
2023-01-17T23:38:02.682Z,98.60
2023-01-17T23:40:32.923Z,98.38
2023-01-17T23:43:18.795Z,98.68
2023-01-17T23:45:47.120Z,98.39
2023-01-17T23:48:15.741Z,98.19
2023-01-17T23:50:47.311Z,97.55
2023-01-17T23:53:22.530Z,97.81
2023-01-17T23:55:52.500Z,97.96
2023-01-17T23:58:23.965Z,97.72
